sensor_id;sensor_type;location;lat;lon;timestamp;temperature;humidity
62363;DHT22;48396;48.426;1.500;2023-05-14T00:02:23;18.40;82.20
62363;DHT22;48396;48.426;1.500;2023-05-14T00:04:48;18.30;82.20
62363;DHT22;48396;48.426;1.500;2023-05-14T00:07:14;18.30;82.30
62363;DHT22;48396;48.426;1.500;2023-05-14T00:09:39;18.30;82.40
62363;DHT22;48396;48.426;1.500;2023-05-14T00:12:05;18.20;82.40
62363;DHT22;48396;48.426;1.500;2023-05-14T00:14:31;18.30;82.40
62363;DHT22;48396;48.426;1.500;2023-05-14T00:16:56;18.30;82.50
62363;DHT22;48396;48.426;1.500;2023-05-14T00:19:24;18.20;82.50
62363;DHT22;48396;48.426;1.500;2023-05-14T00:21:49;18.20;82.60
62363;DHT22;48396;48.426;1.500;2023-05-14T00:24:15;18.20;82.50
62363;DHT22;48396;48.426;1.500;2023-05-14T00:26:40;18.20;82.60
62363;DHT22;48396;48.426;1.500;2023-05-14T00:29:06;18.20;82.80
62363;DHT22;48396;48.426;1.500;2023-05-14T00:31:32;18.20;83.30
62363;DHT22;48396;48.426;1.500;2023-05-14T00:33:57;18.20;82.80
62363;DHT22;48396;48.426;1.500;2023-05-14T00:36:23;18.20;82.70
62363;DHT22;48396;48.426;1.500;2023-05-14T00:38:48;18.20;82.70
62363;DHT22;48396;48.426;1.500;2023-05-14T00:41:14;18.20;82.90
62363;DHT22;48396;48.426;1.500;2023-05-14T00:43:40;18.10;83.20
62363;DHT22;48396;48.426;1.500;2023-05-14T00:46:05;18.10;83.20
62363;DHT22;48396;48.426;1.500;2023-05-14T00:48:31;18.10;83.00
62363;DHT22;48396;48.426;1.500;2023-05-14T00:50:57;18.00;83.20
62363;DHT22;48396;48.426;1.500;2023-05-14T00:53:22;18.00;83.20
62363;DHT22;48396;48.426;1.500;2023-05-14T00:55:49;18.00;83.20
62363;DHT22;48396;48.426;1.500;2023-05-14T00:58:15;17.90;83.30
62363;DHT22;48396;48.426;1.500;2023-05-14T01:00:42;18.00;83.40
62363;DHT22;48396;48.426;1.500;2023-05-14T01:03:08;18.00;83.40
62363;DHT22;48396;48.426;1.500;2023-05-14T01:11:32;17.70;84.00
62363;DHT22;48396;48.426;1.500;2023-05-14T01:14:39;17.70;84.40
62363;DHT22;48396;48.426;1.500;2023-05-14T01:17:10;17.60;84.50
62363;DHT22;48396;48.426;1.500;2023-05-14T01:19:55;17.60;84.50
62363;DHT22;48396;48.426;1.500;2023-05-14T01:22:22;17.70;84.50
62363;DHT22;48396;48.426;1.500;2023-05-14T01:24:47;17.70;84.30
62363;DHT22;48396;48.426;1.500;2023-05-14T01:33:04;17.60;84.50
62363;DHT22;48396;48.426;1.500;2023-05-14T01:35:31;17.60;84.60
62363;DHT22;48396;48.426;1.500;2023-05-14T01:37:59;17.50;84.70
62363;DHT22;48396;48.426;1.500;2023-05-14T01:40:25;17.50;85.20
62363;DHT22;48396;48.426;1.500;2023-05-14T01:42:52;17.50;84.60
62363;DHT22;48396;48.426;1.500;2023-05-14T01:45:24;17.50;84.50
62363;DHT22;48396;48.426;1.500;2023-05-14T01:47:50;17.50;84.60
62363;DHT22;48396;48.426;1.500;2023-05-14T01:50:16;17.40;84.70
62363;DHT22;48396;48.426;1.500;2023-05-14T01:52:42;17.30;84.90
62363;DHT22;48396;48.426;1.500;2023-05-14T01:55:08;17.30;84.90
62363;DHT22;48396;48.426;1.500;2023-05-14T01:57:33;17.40;84.80
62363;DHT22;48396;48.426;1.500;2023-05-14T01:59:59;17.30;84.90
62363;DHT22;48396;48.426;1.500;2023-05-14T02:02:25;17.30;84.80
62363;DHT22;48396;48.426;1.500;2023-05-14T02:04:50;17.30;85.00
62363;DHT22;48396;48.426;1.500;2023-05-14T02:07:16;17.20;85.50
62363;DHT22;48396;48.426;1.500;2023-05-14T02:09:42;17.20;84.90
62363;DHT22;48396;48.426;1.500;2023-05-14T02:12:08;17.20;84.90
62363;DHT22;48396;48.426;1.500;2023-05-14T02:14:34;17.20;84.80
62363;DHT22;48396;48.426;1.500;2023-05-14T02:17:00;17.10;84.70
62363;DHT22;48396;48.426;1.500;2023-05-14T02:19:25;17.10;84.70
62363;DHT22;48396;48.426;1.500;2023-05-14T02:21:51;17.00;84.70
62363;DHT22;48396;48.426;1.500;2023-05-14T02:24:16;17.00;84.80
62363;DHT22;48396;48.426;1.500;2023-05-14T02:26:42;16.90;84.90
62363;DHT22;48396;48.426;1.500;2023-05-14T02:29:08;16.80;85.00
62363;DHT22;48396;48.426;1.500;2023-05-14T02:31:33;16.70;84.90
62363;DHT22;48396;48.426;1.500;2023-05-14T02:34:03;16.80;84.90
62363;DHT22;48396;48.426;1.500;2023-05-14T02:36:29;16.80;84.80
62363;DHT22;48396;48.426;1.500;2023-05-14T02:38:57;16.80;84.80
62363;DHT22;48396;48.426;1.500;2023-05-14T02:41:22;16.70;84.90
62363;DHT22;48396;48.426;1.500;2023-05-14T02:43:48;16.60;85.20
62363;DHT22;48396;48.426;1.500;2023-05-14T02:46:13;16.50;85.20
62363;DHT22;48396;48.426;1.500;2023-05-14T02:48:39;16.50;85.60
62363;DHT22;48396;48.426;1.500;2023-05-14T02:51:05;16.40;85.90
62363;DHT22;48396;48.426;1.500;2023-05-14T02:53:31;16.40;85.90
62363;DHT22;48396;48.426;1.500;2023-05-14T02:55:57;16.30;85.90
62363;DHT22;48396;48.426;1.500;2023-05-14T02:58:23;16.20;86.20
62363;DHT22;48396;48.426;1.500;2023-05-14T03:00:48;16.20;86.20
62363;DHT22;48396;48.426;1.500;2023-05-14T03:03:14;16.20;86.20
62363;DHT22;48396;48.426;1.500;2023-05-14T03:05:39;16.10;86.30
62363;DHT22;48396;48.426;1.500;2023-05-14T03:08:05;16.10;86.30
62363;DHT22;48396;48.426;1.500;2023-05-14T03:10:31;16.00;86.10
62363;DHT22;48396;48.426;1.500;2023-05-14T03:12:57;16.20;86.00
62363;DHT22;48396;48.426;1.500;2023-05-14T03:15:22;16.20;85.80
62363;DHT22;48396;48.426;1.500;2023-05-14T03:17:48;16.30;85.70
62363;DHT22;48396;48.426;1.500;2023-05-14T03:20:14;16.30;85.60
62363;DHT22;48396;48.426;1.500;2023-05-14T03:22:39;16.30;85.40
62363;DHT22;48396;48.426;1.500;2023-05-14T03:25:05;16.20;85.50
62363;DHT22;48396;48.426;1.500;2023-05-14T03:27:31;16.20;85.60
62363;DHT22;48396;48.426;1.500;2023-05-14T03:29:57;16.20;85.70
62363;DHT22;48396;48.426;1.500;2023-05-14T03:32:23;16.20;85.70
62363;DHT22;48396;48.426;1.500;2023-05-14T03:34:49;16.10;85.60
62363;DHT22;48396;48.426;1.500;2023-05-14T03:37:14;16.10;85.60
62363;DHT22;48396;48.426;1.500;2023-05-14T03:39:40;16.00;85.70
62363;DHT22;48396;48.426;1.500;2023-05-14T03:42:06;15.80;86.00
62363;DHT22;48396;48.426;1.500;2023-05-14T03:44:31;15.80;86.30
62363;DHT22;48396;48.426;1.500;2023-05-14T03:46:57;15.80;86.50
62363;DHT22;48396;48.426;1.500;2023-05-14T03:49:22;15.80;86.50
62363;DHT22;48396;48.426;1.500;2023-05-14T03:51:48;15.80;86.30
62363;DHT22;48396;48.426;1.500;2023-05-14T03:54:14;15.80;86.40
62363;DHT22;48396;48.426;1.500;2023-05-14T03:56:39;15.70;86.40
62363;DHT22;48396;48.426;1.500;2023-05-14T03:59:05;15.80;86.50
62363;DHT22;48396;48.426;1.500;2023-05-14T04:01:31;15.90;86.50
62363;DHT22;48396;48.426;1.500;2023-05-14T04:03:56;15.80;86.60
62363;DHT22;48396;48.426;1.500;2023-05-14T04:06:22;15.80;86.60
62363;DHT22;48396;48.426;1.500;2023-05-14T04:08:48;15.70;86.80
62363;DHT22;48396;48.426;1.500;2023-05-14T04:11:13;15.70;86.90
62363;DHT22;48396;48.426;1.500;2023-05-14T04:13:39;15.70;87.20
62363;DHT22;48396;48.426;1.500;2023-05-14T04:16:04;15.80;87.20
62363;DHT22;48396;48.426;1.500;2023-05-14T04:18:30;15.70;87.50
62363;DHT22;48396;48.426;1.500;2023-05-14T04:20:59;15.70;87.50
62363;DHT22;48396;48.426;1.500;2023-05-14T04:23:25;15.60;87.40
62363;DHT22;48396;48.426;1.500;2023-05-14T04:25:50;15.70;87.50
62363;DHT22;48396;48.426;1.500;2023-05-14T04:28:16;15.70;88.00
62363;DHT22;48396;48.426;1.500;2023-05-14T04:30:41;15.90;87.40
62363;DHT22;48396;48.426;1.500;2023-05-14T04:33:07;15.90;87.40
62363;DHT22;48396;48.426;1.500;2023-05-14T04:35:32;15.90;87.30
62363;DHT22;48396;48.426;1.500;2023-05-14T04:37:58;15.90;87.20
62363;DHT22;48396;48.426;1.500;2023-05-14T04:40:24;15.80;87.50
62363;DHT22;48396;48.426;1.500;2023-05-14T04:42:49;15.80;87.80
62363;DHT22;48396;48.426;1.500;2023-05-14T04:45:15;15.70;87.80
62363;DHT22;48396;48.426;1.500;2023-05-14T04:47:41;15.80;87.80
62363;DHT22;48396;48.426;1.500;2023-05-14T04:50:07;15.80;88.50
62363;DHT22;48396;48.426;1.500;2023-05-14T04:52:34;15.70;88.10
62363;DHT22;48396;48.426;1.500;2023-05-14T04:54:59;15.70;88.10
62363;DHT22;48396;48.426;1.500;2023-05-14T04:57:25;15.60;88.20
62363;DHT22;48396;48.426;1.500;2023-05-14T04:59:51;15.60;88.60
62363;DHT22;48396;48.426;1.500;2023-05-14T05:02:16;15.60;88.70
62363;DHT22;48396;48.426;1.500;2023-05-14T05:04:42;15.60;88.80
62363;DHT22;48396;48.426;1.500;2023-05-14T05:07:08;15.70;88.90
62363;DHT22;48396;48.426;1.500;2023-05-14T05:09:33;15.70;88.50
62363;DHT22;48396;48.426;1.500;2023-05-14T05:11:59;15.80;88.40
62363;DHT22;48396;48.426;1.500;2023-05-14T05:14:25;15.90;88.40
62363;DHT22;48396;48.426;1.500;2023-05-14T05:16:51;16.00;88.20
62363;DHT22;48396;48.426;1.500;2023-05-14T05:19:17;15.80;88.50
62363;DHT22;48396;48.426;1.500;2023-05-14T05:21:42;15.80;88.70
62363;DHT22;48396;48.426;1.500;2023-05-14T05:24:08;15.60;88.80
62363;DHT22;48396;48.426;1.500;2023-05-14T05:26:33;15.70;88.90
62363;DHT22;48396;48.426;1.500;2023-05-14T05:29:02;15.60;89.00
62363;DHT22;48396;48.426;1.500;2023-05-14T05:31:28;15.60;89.30
62363;DHT22;48396;48.426;1.500;2023-05-14T05:33:53;15.50;89.50
62363;DHT22;48396;48.426;1.500;2023-05-14T05:36:19;15.50;89.50
62363;DHT22;48396;48.426;1.500;2023-05-14T05:38:45;15.60;89.60
62363;DHT22;48396;48.426;1.500;2023-05-14T05:41:10;15.60;89.60
62363;DHT22;48396;48.426;1.500;2023-05-14T05:43:36;15.60;89.70
62363;DHT22;48396;48.426;1.500;2023-05-14T05:46:01;15.60;89.60
62363;DHT22;48396;48.426;1.500;2023-05-14T05:48:27;15.70;89.50
62363;DHT22;48396;48.426;1.500;2023-05-14T05:50:52;15.70;89.50
62363;DHT22;48396;48.426;1.500;2023-05-14T05:53:18;15.70;89.50
62363;DHT22;48396;48.426;1.500;2023-05-14T05:55:43;15.60;89.30
62363;DHT22;48396;48.426;1.500;2023-05-14T05:58:09;15.70;89.50
62363;DHT22;48396;48.426;1.500;2023-05-14T06:00:35;15.70;89.50
62363;DHT22;48396;48.426;1.500;2023-05-14T06:03:00;15.70;89.70
62363;DHT22;48396;48.426;1.500;2023-05-14T06:05:26;15.40;90.00
62363;DHT22;48396;48.426;1.500;2023-05-14T06:07:51;15.40;90.10
62363;DHT22;48396;48.426;1.500;2023-05-14T06:10:18;15.40;90.10
62363;DHT22;48396;48.426;1.500;2023-05-14T06:12:44;15.70;90.10
62363;DHT22;48396;48.426;1.500;2023-05-14T06:15:09;15.70;90.40
62363;DHT22;48396;48.426;1.500;2023-05-14T06:17:36;15.60;90.20
62363;DHT22;48396;48.426;1.500;2023-05-14T06:20:02;15.60;90.30
62363;DHT22;48396;48.426;1.500;2023-05-14T06:22:30;15.50;90.30
62363;DHT22;48396;48.426;1.500;2023-05-14T06:24:55;15.60;90.40
62363;DHT22;48396;48.426;1.500;2023-05-14T06:27:21;15.70;90.30
62363;DHT22;48396;48.426;1.500;2023-05-14T06:29:47;15.70;90.30
62363;DHT22;48396;48.426;1.500;2023-05-14T06:32:12;15.80;90.30
62363;DHT22;48396;48.426;1.500;2023-05-14T06:34:40;15.70;90.30
62363;DHT22;48396;48.426;1.500;2023-05-14T06:37:07;15.70;90.50
62363;DHT22;48396;48.426;1.500;2023-05-14T06:39:34;15.60;90.60
62363;DHT22;48396;48.426;1.500;2023-05-14T06:41:59;15.60;90.60
62363;DHT22;48396;48.426;1.500;2023-05-14T06:44:25;15.60;90.60
62363;DHT22;48396;48.426;1.500;2023-05-14T06:46:51;15.60;90.70
62363;DHT22;48396;48.426;1.500;2023-05-14T06:49:16;15.60;90.70
62363;DHT22;48396;48.426;1.500;2023-05-14T06:51:42;15.60;90.80
62363;DHT22;48396;48.426;1.500;2023-05-14T06:54:08;15.60;90.90
62363;DHT22;48396;48.426;1.500;2023-05-14T06:56:33;15.60;91.10
62363;DHT22;48396;48.426;1.500;2023-05-14T06:58:59;15.60;91.10
62363;DHT22;48396;48.426;1.500;2023-05-14T07:01:24;15.60;91.20
62363;DHT22;48396;48.426;1.500;2023-05-14T07:03:50;15.60;91.10
62363;DHT22;48396;48.426;1.500;2023-05-14T07:06:16;15.70;91.00
62363;DHT22;48396;48.426;1.500;2023-05-14T07:08:42;15.70;91.10
62363;DHT22;48396;48.426;1.500;2023-05-14T07:11:10;15.70;91.10
62363;DHT22;48396;48.426;1.500;2023-05-14T07:13:37;15.70;91.10
62363;DHT22;48396;48.426;1.500;2023-05-14T07:16:03;15.80;91.20
62363;DHT22;48396;48.426;1.500;2023-05-14T07:18:29;15.80;91.20
62363;DHT22;48396;48.426;1.500;2023-05-14T07:20:55;15.90;91.10
62363;DHT22;48396;48.426;1.500;2023-05-14T07:23:20;15.90;91.10
62363;DHT22;48396;48.426;1.500;2023-05-14T07:25:46;16.00;91.20
62363;DHT22;48396;48.426;1.500;2023-05-14T07:28:12;15.90;91.30
62363;DHT22;48396;48.426;1.500;2023-05-14T07:30:37;15.90;91.30
62363;DHT22;48396;48.426;1.500;2023-05-14T07:33:03;15.90;91.40
62363;DHT22;48396;48.426;1.500;2023-05-14T07:35:28;16.00;91.40
62363;DHT22;48396;48.426;1.500;2023-05-14T07:37:54;15.90;91.50
62363;DHT22;48396;48.426;1.500;2023-05-14T07:40:19;15.80;91.70
62363;DHT22;48396;48.426;1.500;2023-05-14T07:42:45;16.00;91.80
62363;DHT22;48396;48.426;1.500;2023-05-14T07:45:11;16.00;91.70
62363;DHT22;48396;48.426;1.500;2023-05-14T07:47:36;16.00;91.60
62363;DHT22;48396;48.426;1.500;2023-05-14T07:50:03;16.10;91.50
62363;DHT22;48396;48.426;1.500;2023-05-14T07:52:28;16.20;91.40
62363;DHT22;48396;48.426;1.500;2023-05-14T07:54:54;16.20;91.50
62363;DHT22;48396;48.426;1.500;2023-05-14T07:57:20;16.10;91.60
62363;DHT22;48396;48.426;1.500;2023-05-14T07:59:46;16.10;91.60
62363;DHT22;48396;48.426;1.500;2023-05-14T08:02:12;16.10;91.60
62363;DHT22;48396;48.426;1.500;2023-05-14T08:04:40;16.10;91.70
62363;DHT22;48396;48.426;1.500;2023-05-14T08:07:06;16.10;91.90
62363;DHT22;48396;48.426;1.500;2023-05-14T08:09:33;16.10;91.80
62363;DHT22;48396;48.426;1.500;2023-05-14T08:11:58;16.10;91.80
62363;DHT22;48396;48.426;1.500;2023-05-14T08:14:42;16.10;92.00
62363;DHT22;48396;48.426;1.500;2023-05-14T08:17:08;16.00;92.00
62363;DHT22;48396;48.426;1.500;2023-05-14T08:19:34;16.00;92.00
62363;DHT22;48396;48.426;1.500;2023-05-14T08:21:59;16.00;91.90
62363;DHT22;48396;48.426;1.500;2023-05-14T08:24:25;16.20;91.80
62363;DHT22;48396;48.426;1.500;2023-05-14T08:26:50;16.10;91.70
62363;DHT22;48396;48.426;1.500;2023-05-14T08:29:16;16.10;91.60
62363;DHT22;48396;48.426;1.500;2023-05-14T08:31:42;15.90;91.70
62363;DHT22;48396;48.426;1.500;2023-05-14T08:34:08;15.80;91.90
62363;DHT22;48396;48.426;1.500;2023-05-14T08:36:33;15.80;92.10
62363;DHT22;48396;48.426;1.500;2023-05-14T08:38:59;15.80;92.10
62363;DHT22;48396;48.426;1.500;2023-05-14T08:41:24;15.90;92.10
62363;DHT22;48396;48.426;1.500;2023-05-14T08:46:20;16.10;91.90
62363;DHT22;48396;48.426;1.500;2023-05-14T08:48:51;15.90;91.90
62363;DHT22;48396;48.426;1.500;2023-05-14T08:51:18;16.00;92.00
62363;DHT22;48396;48.426;1.500;2023-05-14T08:53:44;16.00;92.00
62363;DHT22;48396;48.426;1.500;2023-05-14T08:56:09;16.10;91.90
62363;DHT22;48396;48.426;1.500;2023-05-14T08:58:53;16.20;91.90
62363;DHT22;48396;48.426;1.500;2023-05-14T09:01:19;16.20;91.90
62363;DHT22;48396;48.426;1.500;2023-05-14T09:03:45;16.00;92.00
62363;DHT22;48396;48.426;1.500;2023-05-14T09:06:12;15.90;92.20
62363;DHT22;48396;48.426;1.500;2023-05-14T09:08:38;16.00;92.20
62363;DHT22;48396;48.426;1.500;2023-05-14T09:11:04;15.90;92.20
62363;DHT22;48396;48.426;1.500;2023-05-14T09:13:30;15.90;92.30
62363;DHT22;48396;48.426;1.500;2023-05-14T09:15:56;15.90;92.30
62363;DHT22;48396;48.426;1.500;2023-05-14T09:18:23;15.90;92.40
62363;DHT22;48396;48.426;1.500;2023-05-14T09:20:49;16.00;92.40
62363;DHT22;48396;48.426;1.500;2023-05-14T09:23:33;16.00;92.30
62363;DHT22;48396;48.426;1.500;2023-05-14T09:26:03;16.00;92.30
62363;DHT22;48396;48.426;1.500;2023-05-14T09:28:29;16.00;92.30
62363;DHT22;48396;48.426;1.500;2023-05-14T09:30:55;16.00;92.30
62363;DHT22;48396;48.426;1.500;2023-05-14T09:33:27;16.00;92.30
62363;DHT22;48396;48.426;1.500;2023-05-14T09:36:00;16.10;92.30
62363;DHT22;48396;48.426;1.500;2023-05-14T09:38:30;16.10;92.20
62363;DHT22;48396;48.426;1.500;2023-05-14T09:40:57;16.10;92.30
62363;DHT22;48396;48.426;1.500;2023-05-14T09:43:22;16.00;92.30
62363;DHT22;48396;48.426;1.500;2023-05-14T09:45:48;16.10;92.40
62363;DHT22;48396;48.426;1.500;2023-05-14T09:48:14;16.10;92.30
62363;DHT22;48396;48.426;1.500;2023-05-14T09:50:44;16.10;92.30
62363;DHT22;48396;48.426;1.500;2023-05-14T09:53:10;16.10;92.30
62363;DHT22;48396;48.426;1.500;2023-05-14T09:55:36;16.20;92.20
62363;DHT22;48396;48.426;1.500;2023-05-14T09:58:03;16.20;92.20
62363;DHT22;48396;48.426;1.500;2023-05-14T10:00:30;16.20;92.20
62363;DHT22;48396;48.426;1.500;2023-05-14T10:02:57;16.20;92.30
62363;DHT22;48396;48.426;1.500;2023-05-14T10:05:23;16.40;92.20
62363;DHT22;48396;48.426;1.500;2023-05-14T10:07:52;16.40;92.20
62363;DHT22;48396;48.426;1.500;2023-05-14T10:10:20;16.40;92.00
62363;DHT22;48396;48.426;1.500;2023-05-14T10:12:52;16.50;92.00
62363;DHT22;48396;48.426;1.500;2023-05-14T10:15:38;16.60;92.00
62363;DHT22;48396;48.426;1.500;2023-05-14T10:18:11;16.60;91.90
62363;DHT22;48396;48.426;1.500;2023-05-14T10:20:38;16.50;91.90
62363;DHT22;48396;48.426;1.500;2023-05-14T10:23:05;16.60;91.90
62363;DHT22;48396;48.426;1.500;2023-05-14T10:25:32;16.60;92.00
62363;DHT22;48396;48.426;1.500;2023-05-14T10:27:58;16.70;91.90
62363;DHT22;48396;48.426;1.500;2023-05-14T10:30:24;16.80;91.80
62363;DHT22;48396;48.426;1.500;2023-05-14T10:33:10;16.90;91.70
62363;DHT22;48396;48.426;1.500;2023-05-14T10:36:06;16.80;91.60
62363;DHT22;48396;48.426;1.500;2023-05-14T10:38:36;16.90;91.70
62363;DHT22;48396;48.426;1.500;2023-05-14T10:41:10;17.00;91.70
62363;DHT22;48396;48.426;1.500;2023-05-14T10:43:37;17.00;91.70
62363;DHT22;48396;48.426;1.500;2023-05-14T10:46:04;17.00;91.60
62363;DHT22;48396;48.426;1.500;2023-05-14T10:48:31;17.10;91.70
62363;DHT22;48396;48.426;1.500;2023-05-14T10:50:57;17.20;91.70
62363;DHT22;48396;48.426;1.500;2023-05-14T10:53:39;17.20;91.50
62363;DHT22;48396;48.426;1.500;2023-05-14T10:56:08;17.40;91.50
62363;DHT22;48396;48.426;1.500;2023-05-14T10:58:43;17.40;91.50
62363;DHT22;48396;48.426;1.500;2023-05-14T11:01:10;17.40;91.60
62363;DHT22;48396;48.426;1.500;2023-05-14T11:03:42;17.50;91.60
62363;DHT22;48396;48.426;1.500;2023-05-14T11:06:10;17.50;91.60
62363;DHT22;48396;48.426;1.500;2023-05-14T11:08:36;17.50;91.40
62363;DHT22;48396;48.426;1.500;2023-05-14T11:11:02;17.60;91.50
62363;DHT22;48396;48.426;1.500;2023-05-14T11:13:28;17.60;91.50
62363;DHT22;48396;48.426;1.500;2023-05-14T11:15:55;17.80;91.50
62363;DHT22;48396;48.426;1.500;2023-05-14T11:18:28;17.80;91.40
62363;DHT22;48396;48.426;1.500;2023-05-14T11:20:58;17.90;91.40
62363;DHT22;48396;48.426;1.500;2023-05-14T11:23:24;17.90;91.40
62363;DHT22;48396;48.426;1.500;2023-05-14T11:25:51;18.10;91.40
62363;DHT22;48396;48.426;1.500;2023-05-14T11:28:22;18.20;91.40
62363;DHT22;48396;48.426;1.500;2023-05-14T11:30:52;18.20;91.30
62363;DHT22;48396;48.426;1.500;2023-05-14T11:33:18;18.30;91.20
62363;DHT22;48396;48.426;1.500;2023-05-14T11:35:44;18.50;91.10
62363;DHT22;48396;48.426;1.500;2023-05-14T11:38:18;18.60;91.00
62363;DHT22;48396;48.426;1.500;2023-05-14T11:40:57;18.60;91.00
62363;DHT22;48396;48.426;1.500;2023-05-14T11:43:24;18.70;91.10
62363;DHT22;48396;48.426;1.500;2023-05-14T11:45:53;18.80;90.90
62363;DHT22;48396;48.426;1.500;2023-05-14T11:48:19;18.70;90.90
62363;DHT22;48396;48.426;1.500;2023-05-14T11:50:50;18.80;91.00
62363;DHT22;48396;48.426;1.500;2023-05-14T11:53:23;18.90;91.00
62363;DHT22;48396;48.426;1.500;2023-05-14T11:55:49;18.90;91.00
62363;DHT22;48396;48.426;1.500;2023-05-14T11:58:16;19.00;90.90
62363;DHT22;48396;48.426;1.500;2023-05-14T12:00:44;19.10;90.70
62363;DHT22;48396;48.426;1.500;2023-05-14T12:03:10;19.20;90.60
62363;DHT22;48396;48.426;1.500;2023-05-14T12:05:39;19.20;90.50
62363;DHT22;48396;48.426;1.500;2023-05-14T12:08:27;19.30;90.20
62363;DHT22;48396;48.426;1.500;2023-05-14T12:10:53;19.50;90.20
62363;DHT22;48396;48.426;1.500;2023-05-14T12:13:19;19.50;90.10
62363;DHT22;48396;48.426;1.500;2023-05-14T12:15:46;19.50;90.00
62363;DHT22;48396;48.426;1.500;2023-05-14T12:18:12;19.60;89.60
62363;DHT22;48396;48.426;1.500;2023-05-14T12:20:37;19.70;89.40
62363;DHT22;48396;48.426;1.500;2023-05-14T12:23:03;19.80;89.40
62363;DHT22;48396;48.426;1.500;2023-05-14T12:25:29;19.90;89.60
62363;DHT22;48396;48.426;1.500;2023-05-14T12:27:55;19.90;89.50
62363;DHT22;48396;48.426;1.500;2023-05-14T12:30:21;19.90;88.90
62363;DHT22;48396;48.426;1.500;2023-05-14T12:32:46;19.90;89.20
62363;DHT22;48396;48.426;1.500;2023-05-14T12:35:15;20.00;89.00
62363;DHT22;48396;48.426;1.500;2023-05-14T12:37:41;20.00;88.80
62363;DHT22;48396;48.426;1.500;2023-05-14T12:40:07;20.00;87.90
62363;DHT22;48396;48.426;1.500;2023-05-14T12:42:36;20.00;88.30
62363;DHT22;48396;48.426;1.500;2023-05-14T12:45:02;20.10;88.60
62363;DHT22;48396;48.426;1.500;2023-05-14T12:47:31;20.20;88.50
62363;DHT22;48396;48.426;1.500;2023-05-14T12:49:56;20.30;88.00
62363;DHT22;48396;48.426;1.500;2023-05-14T12:52:22;20.30;87.20
62363;DHT22;48396;48.426;1.500;2023-05-14T12:54:47;20.40;87.60
62363;DHT22;48396;48.426;1.500;2023-05-14T12:57:13;20.50;87.40
62363;DHT22;48396;48.426;1.500;2023-05-14T12:59:39;20.50;87.00
62363;DHT22;48396;48.426;1.500;2023-05-14T13:02:05;20.50;86.70
62363;DHT22;48396;48.426;1.500;2023-05-14T13:04:31;20.60;86.60
62363;DHT22;48396;48.426;1.500;2023-05-14T13:06:57;20.70;85.90
62363;DHT22;48396;48.426;1.500;2023-05-14T13:09:22;20.70;86.00
62363;DHT22;48396;48.426;1.500;2023-05-14T13:11:48;20.70;85.90
62363;DHT22;48396;48.426;1.500;2023-05-14T13:14:13;20.80;85.40
62363;DHT22;48396;48.426;1.500;2023-05-14T13:16:39;20.70;85.60
62363;DHT22;48396;48.426;1.500;2023-05-14T13:19:04;20.80;86.10
62363;DHT22;48396;48.426;1.500;2023-05-14T13:21:30;20.90;86.50
62363;DHT22;48396;48.426;1.500;2023-05-14T13:23:56;21.00;85.90
62363;DHT22;48396;48.426;1.500;2023-05-14T13:26:21;21.00;85.50
62363;DHT22;48396;48.426;1.500;2023-05-14T13:28:47;21.00;85.30
62363;DHT22;48396;48.426;1.500;2023-05-14T13:31:13;21.00;85.40
62363;DHT22;48396;48.426;1.500;2023-05-14T13:33:42;21.00;85.20
62363;DHT22;48396;48.426;1.500;2023-05-14T13:36:10;21.10;84.90
62363;DHT22;48396;48.426;1.500;2023-05-14T13:38:36;21.10;84.90
62363;DHT22;48396;48.426;1.500;2023-05-14T13:41:02;21.20;83.10
62363;DHT22;48396;48.426;1.500;2023-05-14T13:43:29;21.20;83.90
62363;DHT22;48396;48.426;1.500;2023-05-14T13:45:55;21.20;83.90
62363;DHT22;48396;48.426;1.500;2023-05-14T13:48:20;21.30;83.70
62363;DHT22;48396;48.426;1.500;2023-05-14T13:50:46;21.40;83.30
62363;DHT22;48396;48.426;1.500;2023-05-14T13:53:12;21.50;82.40
62363;DHT22;48396;48.426;1.500;2023-05-14T13:55:38;21.60;82.00
62363;DHT22;48396;48.426;1.500;2023-05-14T13:58:03;21.80;81.70
62363;DHT22;48396;48.426;1.500;2023-05-14T14:00:29;21.80;82.00
62363;DHT22;48396;48.426;1.500;2023-05-14T14:02:55;21.80;81.70
62363;DHT22;48396;48.426;1.500;2023-05-14T14:05:20;21.80;82.20
62363;DHT22;48396;48.426;1.500;2023-05-14T14:07:46;21.80;81.70
62363;DHT22;48396;48.426;1.500;2023-05-14T14:10:12;22.00;81.90
62363;DHT22;48396;48.426;1.500;2023-05-14T14:12:38;22.10;81.50
62363;DHT22;48396;48.426;1.500;2023-05-14T14:15:04;22.20;81.00
62363;DHT22;48396;48.426;1.500;2023-05-14T14:17:30;22.20;80.10
62363;DHT22;48396;48.426;1.500;2023-05-14T14:19:58;22.20;80.30
62363;DHT22;48396;48.426;1.500;2023-05-14T14:22:23;22.30;79.90
62363;DHT22;48396;48.426;1.500;2023-05-14T14:24:49;22.30;79.20
62363;DHT22;48396;48.426;1.500;2023-05-14T14:27:14;22.30;78.60
62363;DHT22;48396;48.426;1.500;2023-05-14T14:29:40;22.30;79.00
62363;DHT22;48396;48.426;1.500;2023-05-14T14:32:06;22.30;79.20
62363;DHT22;48396;48.426;1.500;2023-05-14T14:34:32;22.30;79.20
62363;DHT22;48396;48.426;1.500;2023-05-14T14:36:57;22.40;79.00
62363;DHT22;48396;48.426;1.500;2023-05-14T14:39:23;22.30;78.70
62363;DHT22;48396;48.426;1.500;2023-05-14T14:41:50;22.30;79.40
62363;DHT22;48396;48.426;1.500;2023-05-14T14:44:15;22.30;78.40
62363;DHT22;48396;48.426;1.500;2023-05-14T14:46:41;22.40;78.80
62363;DHT22;48396;48.426;1.500;2023-05-14T14:49:07;22.50;78.10
62363;DHT22;48396;48.426;1.500;2023-05-14T14:51:33;22.60;77.70
62363;DHT22;48396;48.426;1.500;2023-05-14T14:53:58;22.70;77.90
62363;DHT22;48396;48.426;1.500;2023-05-14T14:56:25;22.80;77.60
62363;DHT22;48396;48.426;1.500;2023-05-14T14:58:51;22.90;77.20
62363;DHT22;48396;48.426;1.500;2023-05-14T15:01:17;22.90;77.10
62363;DHT22;48396;48.426;1.500;2023-05-14T15:03:42;22.90;75.30
62363;DHT22;48396;48.426;1.500;2023-05-14T15:06:10;22.90;75.20
62363;DHT22;48396;48.426;1.500;2023-05-14T15:08:35;22.90;75.20
62363;DHT22;48396;48.426;1.500;2023-05-14T15:11:01;23.00;75.60
62363;DHT22;48396;48.426;1.500;2023-05-14T15:13:26;23.00;75.20
62363;DHT22;48396;48.426;1.500;2023-05-14T15:15:53;23.00;75.80
62363;DHT22;48396;48.426;1.500;2023-05-14T15:18:19;23.10;75.70
62363;DHT22;48396;48.426;1.500;2023-05-14T15:20:45;23.00;75.40
62363;DHT22;48396;48.426;1.500;2023-05-14T15:23:10;22.80;75.40
62363;DHT22;48396;48.426;1.500;2023-05-14T15:25:36;22.80;75.00
62363;DHT22;48396;48.426;1.500;2023-05-14T15:28:01;22.80;75.30
62363;DHT22;48396;48.426;1.500;2023-05-14T15:30:27;22.80;75.70
62363;DHT22;48396;48.426;1.500;2023-05-14T15:32:52;22.80;75.70
62363;DHT22;48396;48.426;1.500;2023-05-14T15:35:18;22.90;75.70
62363;DHT22;48396;48.426;1.500;2023-05-14T15:37:44;23.00;75.20
62363;DHT22;48396;48.426;1.500;2023-05-14T15:40:10;23.00;75.20
62363;DHT22;48396;48.426;1.500;2023-05-14T15:42:38;23.00;74.90